»·PEaware :: DAL1211 KSLC-KLAX

DAL1211 :: KSLC-KLAX

FLIGHT INFORMATION

Flight Status: Arrived
Operator:
Delta Air Lines
More flights by this operator :: More flights under this callsign
Pilot: Colin A. (19898)
Aircraft: MCDONNELL-DOUGLAS MD-82
(MD82)
More flights by this aircraft type
Origin: KSLC Salt Lake City Intl
United States
Destination: KLAX Los Angeles Intl
United States
More flights between these airports :: More routes between these airports
Route: +ARCHZ1 WINEN LAKRR Q88 HAKMN ANJLL4
File this flight plan on PilotEdge
Remarks: PBN / A1B2 DOF / 181006 REG / N882SB EET / KZLA0035 OPR / DAL PER / C RMK / TCAS SIMBRIEF
Altitude:
(Current/Filed)
34,000ft
Speed:
(Current/Filed)
448kts
Departed: 05-Oct-18 08:31 PM
Arrived: 05-Oct-18 10:00 PM
Distance/Time
Traveled:
512nm/1:29
Distance/Time
To Go:
Arrived

Flight Plot

Page will automatically refresh every two minutes.

Flight plan parsing failed; only flown route is shown


Map Options




Map Legend


Flown Route
Filed Route
Departure Airport
Arrival Airport
Navaid (VOR, NDB)
Fix

Horizontal Profiles

Position Reports

Time Latitude Longitude Heading Altitude Ground
Speed
05-Oct-18 20:03 40.788537 -111.984057 251 4236ft 0kts
05-Oct-18 20:04 40.788537 -111.984057 251 4236ft 0kts
05-Oct-18 20:05 40.788537 -111.984057 251 4236ft 0kts
05-Oct-18 20:06 40.788537 -111.984057 251 4236ft 0kts
05-Oct-18 20:07 40.788537 -111.984057 251 4236ft 0kts
05-Oct-18 20:08 40.788537 -111.984057 251 4236ft 0kts
05-Oct-18 20:09 40.788537 -111.984057 251 4236ft 0kts
05-Oct-18 20:10 40.788537 -111.984057 251 4236ft 0kts
05-Oct-18 20:11 40.788537 -111.984057 251 4236ft 0kts
05-Oct-18 20:12 40.788537 -111.984057 251 4236ft 0kts
05-Oct-18 20:13 40.788537 -111.984057 251 4236ft 0kts
05-Oct-18 20:14 40.788537 -111.984057 251 4236ft 0kts
05-Oct-18 20:15 40.788537 -111.984057 251 4236ft 0kts
05-Oct-18 20:16 40.788537 -111.984057 251 4236ft 0kts
05-Oct-18 20:17 40.788538 -111.984054 251 4236ft 0kts
05-Oct-18 20:18 40.788530 -111.983335 312 4236ft 2kts
05-Oct-18 20:19 40.788317 -111.983173 339 4236ft 0kts
05-Oct-18 20:20 40.788318 -111.983173 339 4236ft 0kts
05-Oct-18 20:21 40.788318 -111.983173 339 4236ft 0kts
05-Oct-18 20:22 40.788318 -111.983173 339 4236ft 0kts
05-Oct-18 20:23 40.788318 -111.983173 339 4236ft 0kts
05-Oct-18 20:24 40.789537 -111.983857 317 4236ft 15kts
05-Oct-18 20:25 40.791232 -111.989120 268 4236ft 28kts
05-Oct-18 20:26 40.789286 -111.993914 174 4236ft 11kts
05-Oct-18 20:27 40.785425 -111.993450 174 4236ft 15kts
05-Oct-18 20:28 40.780702 -111.992934 175 4236ft 18kts
05-Oct-18 20:29 40.775708 -111.992371 184 4236ft 2kts
05-Oct-18 20:30 40.775229 -111.994344 265 4236ft 0kts
05-Oct-18 20:31 40.775229 -111.994347 265 4236ft 0kts
05-Oct-18 20:32 40.775742 -111.995510 354 4236ft 0kts
05-Oct-18 20:33 40.794886 -111.997707 354 4240ft 175kts
05-Oct-18 20:34 40.841534 -112.026473 288 7141ft 200kts
05-Oct-18 20:35 40.847066 -112.110265 272 9334ft 263kts
05-Oct-18 20:36 40.835528 -112.204036 229 9431ft 285kts
05-Oct-18 20:37 40.773606 -112.278391 226 10990ft 329kts
05-Oct-18 20:38 40.685601 -112.308635 182 13608ft 340kts
05-Oct-18 20:39 40.589353 -112.313197 186 15788ft 352kts
05-Oct-18 20:40 40.492327 -112.339367 199 17882ft 360kts
05-Oct-18 20:41 40.395592 -112.380609 200 19839ft 370kts
05-Oct-18 20:42 40.296027 -112.421431 200 21681ft 380kts
05-Oct-18 20:43 40.193895 -112.463965 200 23374ft 390kts
05-Oct-18 20:44 40.095302 -112.524964 212 24952ft 395kts
05-Oct-18 20:45 39.999245 -112.596658 212 26326ft 402kts
05-Oct-18 20:46 39.899444 -112.667042 211 27462ft 411kts
05-Oct-18 20:47 39.798170 -112.738724 212 28505ft 417kts
05-Oct-18 20:48 39.695218 -112.810076 212 29383ft 422kts
05-Oct-18 20:49 39.584518 -112.864834 199 30347ft 429kts
05-Oct-18 20:50 39.469181 -112.905237 200 31257ft 429kts
05-Oct-18 20:51 39.355229 -112.948230 201 32132ft 427kts
05-Oct-18 20:52 39.241912 -112.993550 202 32945ft 425kts
05-Oct-18 20:53 39.129180 -113.037626 202 33679ft 424kts
05-Oct-18 20:54 39.015519 -113.082477 201 33986ft 428kts
05-Oct-18 20:55 38.902240 -113.127189 202 33976ft 427kts
05-Oct-18 20:56 38.788449 -113.171443 201 33977ft 427kts
05-Oct-18 20:57 38.674430 -113.215407 201 33978ft 428kts
05-Oct-18 20:58 38.560342 -113.259849 202 33978ft 429kts
05-Oct-18 20:59 38.446067 -113.304601 202 33978ft 430kts
05-Oct-18 21:00 38.331121 -113.347850 202 33976ft 431kts
05-Oct-18 21:01 38.216155 -113.392341 202 33974ft 432kts
05-Oct-18 21:02 38.100921 -113.436592 202 33970ft 432kts
05-Oct-18 21:03 37.985176 -113.479225 201 33966ft 434kts
05-Oct-18 21:04 37.870139 -113.525186 204 33963ft 433kts
05-Oct-18 21:05 37.756651 -113.575945 204 33956ft 433kts
05-Oct-18 21:06 37.642487 -113.625410 204 34059ft 434kts
05-Oct-18 21:07 37.528383 -113.675003 205 34067ft 433kts
05-Oct-18 21:08 37.414113 -113.724684 204 34044ft 434kts
05-Oct-18 21:09 37.299895 -113.773807 204 34025ft 434kts
05-Oct-18 21:10 37.185747 -113.822963 204 34014ft 434kts
05-Oct-18 21:11 37.071822 -113.871928 204 34013ft 434kts
05-Oct-18 21:12 36.957265 -113.920108 204 34017ft 434kts
05-Oct-18 21:13 36.842861 -113.968861 204 34003ft 434kts
05-Oct-18 21:14 36.728006 -114.017767 204 33998ft 438kts
05-Oct-18 21:15 36.612403 -114.066214 203 33992ft 438kts
05-Oct-18 21:16 36.496599 -114.114359 204 33993ft 438kts
05-Oct-18 21:17 36.380898 -114.162862 204 33989ft 438kts
05-Oct-18 21:18 36.264725 -114.208554 202 33986ft 439kts
05-Oct-18 21:19 36.148606 -114.255438 204 33968ft 437kts
05-Oct-18 21:20 36.043711 -114.323011 230 33968ft 421kts
05-Oct-18 21:21 35.971335 -114.434676 237 33959ft 415kts
05-Oct-18 21:22 35.898037 -114.545895 234 33956ft 418kts
05-Oct-18 21:23 35.821012 -114.653295 233 33949ft 419kts
05-Oct-18 21:24 35.742634 -114.760086 233 33949ft 420kts
05-Oct-18 21:25 35.664238 -114.867007 233 33944ft 420kts
05-Oct-18 21:26 35.585751 -114.973872 233 33952ft 421kts
05-Oct-18 21:27 35.507325 -115.080511 233 33947ft 421kts
05-Oct-18 21:28 35.427661 -115.186227 232 33941ft 422kts
05-Oct-18 21:29 35.346864 -115.291113 232 33943ft 423kts
05-Oct-18 21:30 35.265898 -115.395904 232 33949ft 422kts
05-Oct-18 21:31 35.185033 -115.500463 232 33954ft 423kts
05-Oct-18 21:32 35.103795 -115.605337 232 32657ft 429kts
05-Oct-18 21:33 35.021581 -115.709738 232 31458ft 423kts
05-Oct-18 21:34 34.938438 -115.815134 232 30541ft 435kts
05-Oct-18 21:35 34.855231 -115.921135 232 29739ft 431kts
05-Oct-18 21:36 34.772665 -116.025617 232 28939ft 427kts
05-Oct-18 21:37 34.691066 -116.129624 232 28134ft 421kts
05-Oct-18 21:38 34.609762 -116.232806 231 27595ft 432kts
05-Oct-18 21:39 34.527305 -116.336932 231 25828ft 416kts
05-Oct-18 21:40 34.450021 -116.435489 231 24349ft 395kts
05-Oct-18 21:41 34.384895 -116.538813 248 23651ft 381kts
05-Oct-18 21:42 34.341977 -116.654830 250 22632ft 373kts
05-Oct-18 21:43 34.298483 -116.767815 249 21532ft 368kts
05-Oct-18 21:44 34.253917 -116.877909 248 20421ft 361kts
05-Oct-18 21:45 34.209878 -116.986964 250 19350ft 356kts
05-Oct-18 21:46 34.178975 -117.098878 257 18374ft 348kts
05-Oct-18 21:47 34.150436 -117.209654 255 16897ft 342kts
05-Oct-18 21:48 34.120892 -117.317799 255 15096ft 333kts
05-Oct-18 21:49 34.092751 -117.421829 256 13281ft 319kts
05-Oct-18 21:50 34.066119 -117.522569 252 12023ft 315kts
05-Oct-18 21:51 34.030870 -117.619866 248 10799ft 310kts
05-Oct-18 21:52 34.001234 -117.713418 261 9328ft 287kts
05-Oct-18 21:53 33.993692 -117.806114 265 8018ft 270kts
05-Oct-18 21:54 33.977174 -117.892652 262 6976ft 265kts
05-Oct-18 21:55 33.974647 -117.965300 269 6094ft 251kts
05-Oct-18 21:56 33.970845 -118.060378 266 5024ft 245kts
05-Oct-18 21:57 33.962449 -118.141810 262 4089ft 242kts
05-Oct-18 21:58 33.954182 -118.221159 263 2769ft 233kts
05-Oct-18 21:59 33.948018 -118.281208 263 1753ft 192kts
05-Oct-18 22:00 33.941502 -118.344589 262 865ft 148kts
05-Oct-18 22:01 33.937541 -118.383771 262 202ft 141kts
05-Oct-18 22:02 33.935435 -118.407310 329 135ft 11kts
05-Oct-18 22:03 33.936245 -118.407511 356 135ft 0kts
05-Oct-18 22:04 33.936967 -118.407589 355 135ft 19kts
05-Oct-18 22:05 33.939086 -118.405775 61 135ft 9kts
05-Oct-18 22:06 33.940906 -118.406093 268 135ft 0kts
05-Oct-18 22:07 33.940906 -118.406093 268 135ft 0kts
05-Oct-18 22:08 33.940906 -118.406093 268 135ft 0kts

Navigation Log

Ident Type
Flight plan parsing failed, navigation log unavailable